createdAt,value
2023-05-21T00:00:53.804Z,99.90
2023-05-21T00:05:55.633Z,99.90
2023-05-21T00:10:57.482Z,99.90
2023-05-21T00:15:59.227Z,99.90
2023-05-21T00:21:01.766Z,99.90
2023-05-21T00:26:03.612Z,99.90
2023-05-21T00:31:06.190Z,99.90
2023-05-21T00:36:08.783Z,99.90
2023-05-21T00:41:10.904Z,99.90
2023-05-21T00:46:17.864Z,99.90
2023-05-21T00:51:21.619Z,99.90
2023-05-21T00:56:24.921Z,99.90
2023-05-21T01:01:26.984Z,99.90
2023-05-21T01:06:28.978Z,99.90
2023-05-21T01:12:00.950Z,99.90
2023-05-21T01:17:04.860Z,99.90
2023-05-21T01:22:08.228Z,99.90
2023-05-21T01:27:10.476Z,99.90
2023-05-21T01:32:36.774Z,99.90
2023-05-21T01:37:48.191Z,99.90
2023-05-21T01:42:49.899Z,99.90
2023-05-21T01:47:54.607Z,99.90
2023-05-21T01:52:56.990Z,99.90
2023-05-21T01:58:02.303Z,99.90
2023-05-21T02:03:04.493Z,99.90
2023-05-21T02:08:08.448Z,99.90
2023-05-21T02:13:10.581Z,99.90
2023-05-21T02:18:12.421Z,99.90
2023-05-21T02:23:14.258Z,99.90
2023-05-21T02:28:16.003Z,99.90
2023-05-21T02:33:17.753Z,99.90
2023-05-21T02:38:23.026Z,99.90
2023-05-21T02:43:24.997Z,99.90
2023-05-21T02:48:26.836Z,99.90
2023-05-21T02:53:28.550Z,99.90
2023-05-21T02:58:30.815Z,99.90
2023-05-21T03:03:32.706Z,99.90
2023-05-21T03:08:34.451Z,99.90
2023-05-21T03:13:36.279Z,99.90
2023-05-21T03:18:38.066Z,99.90
2023-05-21T03:23:41.778Z,99.90
2023-05-21T03:28:43.520Z,99.90
2023-05-21T03:33:45.575Z,99.90
2023-05-21T03:38:47.299Z,99.90
2023-05-21T03:43:49.022Z,99.90
2023-05-21T03:48:50.744Z,99.90
2023-05-21T03:53:52.499Z,99.90
2023-05-21T03:58:54.283Z,99.90
2023-05-21T04:03:56.329Z,99.90
2023-05-21T04:08:58.151Z,99.90
2023-05-21T04:13:59.934Z,99.90
2023-05-21T04:19:01.867Z,99.90
2023-05-21T04:24:03.865Z,99.90
2023-05-21T04:29:05.836Z,99.90
2023-05-21T04:34:07.558Z,99.90
2023-05-21T04:39:09.316Z,99.90
2023-05-21T04:44:11.065Z,99.90
2023-05-21T04:49:12.796Z,99.90
2023-05-21T04:54:15.666Z,99.90
2023-05-21T04:59:18.604Z,99.90
2023-05-21T05:04:20.438Z,99.90
2023-05-21T05:09:24.952Z,99.90
2023-05-21T05:14:26.771Z,99.90
2023-05-21T05:19:28.638Z,99.90
2023-05-21T05:24:30.492Z,99.90
2023-05-21T05:29:32.232Z,99.90
2023-05-21T05:34:34.078Z,99.90
2023-05-21T05:39:35.916Z,99.90
2023-05-21T05:44:37.618Z,99.90
2023-05-21T05:49:42.240Z,99.90
2023-05-21T05:54:43.976Z,99.90
2023-05-21T05:59:46.012Z,99.90
2023-05-21T06:04:47.789Z,99.90
2023-05-21T06:09:49.569Z,99.90
2023-05-21T06:14:51.374Z,99.90
2023-05-21T06:19:53.151Z,99.90
2023-05-21T06:24:54.934Z,99.90
2023-05-21T06:29:57.332Z,99.90
2023-05-21T06:34:59.250Z,99.90
2023-05-21T06:40:01.376Z,99.90
2023-05-21T06:45:03.564Z,99.90
2023-05-21T06:50:05.683Z,99.90
2023-05-21T06:55:07.981Z,99.90
2023-05-21T07:00:11.296Z,99.90
2023-05-21T07:05:13.069Z,99.90
2023-05-21T07:10:14.781Z,99.90
2023-05-21T07:15:16.485Z,99.90
2023-05-21T07:20:18.282Z,99.90
2023-05-21T07:25:20.196Z,99.90
2023-05-21T07:30:21.993Z,99.90
2023-05-21T07:35:23.884Z,99.90
2023-05-21T07:40:25.819Z,99.90
2023-05-21T07:45:27.573Z,99.90
2023-05-21T07:50:29.308Z,99.90
2023-05-21T07:55:31.033Z,99.90
2023-05-21T08:00:43.505Z,99.90
2023-05-21T08:05:49.214Z,99.90
2023-05-21T08:10:50.991Z,99.90
2023-05-21T08:15:53.545Z,99.90
2023-05-21T08:20:55.768Z,99.90
2023-05-21T08:25:57.569Z,99.90
2023-05-21T08:30:59.335Z,99.90
2023-05-21T08:36:01.289Z,99.90
2023-05-21T08:41:06.943Z,99.90
2023-05-21T08:46:09.981Z,99.90
2023-05-21T08:51:12.474Z,99.90
2023-05-21T08:56:17.012Z,99.90
2023-05-21T09:01:19.940Z,99.90
2023-05-21T09:06:21.945Z,99.90
2023-05-21T09:11:23.659Z,99.90
2023-05-21T09:16:25.551Z,99.90
2023-05-21T09:21:29.126Z,99.90
2023-05-21T09:26:31.380Z,99.90
2023-05-21T09:31:33.214Z,99.90
2023-05-21T09:36:38.437Z,99.90
2023-05-21T09:41:42.580Z,99.90
2023-05-21T09:46:44.343Z,99.90
2023-05-21T09:51:46.119Z,99.90
2023-05-21T09:56:47.966Z,99.90
2023-05-21T10:01:52.820Z,99.90
2023-05-21T10:06:54.708Z,99.90
2023-05-21T10:11:57.397Z,99.90
2023-05-21T10:17:00.396Z,99.90
2023-05-21T10:22:04.400Z,99.90
2023-05-21T10:27:07.375Z,99.90
2023-05-21T10:32:09.511Z,99.90
2023-05-21T10:37:13.311Z,99.90
2023-05-21T10:42:24.076Z,99.90
2023-05-21T10:48:04.964Z,99.90
2023-05-21T10:53:10.028Z,99.90
2023-05-21T10:58:34.392Z,99.90
2023-05-21T11:03:37.893Z,99.90
2023-05-21T11:08:47.977Z,99.90
2023-05-21T11:13:50.821Z,99.90
2023-05-21T11:18:54.981Z,99.90
2023-05-21T11:24:04.936Z,99.90
2023-05-21T11:29:07.304Z,99.90
2023-05-21T11:34:16.238Z,99.90
2023-05-21T11:39:28.626Z,99.90
2023-05-21T11:44:45.424Z,99.90
2023-05-21T11:49:48.063Z,99.90
2023-05-21T11:54:55.300Z,99.90
2023-05-21T12:00:01.443Z,99.90
2023-05-21T12:05:03.917Z,99.90
2023-05-21T12:10:06.701Z,99.90
2023-05-21T12:15:10.168Z,99.90
2023-05-21T12:20:16.479Z,99.90
2023-05-21T12:25:22.306Z,99.90
2023-05-21T12:30:25.402Z,99.90
2023-05-21T12:35:30.949Z,99.90
2023-05-21T12:40:40.534Z,99.90
2023-05-21T12:45:43.759Z,99.90
2023-05-21T12:50:45.901Z,99.90
2023-05-21T12:55:47.953Z,99.90
2023-05-21T13:00:50.069Z,99.90
2023-05-21T13:06:02.597Z,99.90
2023-05-21T13:11:04.646Z,99.90
2023-05-21T13:16:07.058Z,99.90
2023-05-21T13:21:08.850Z,99.90
2023-05-21T13:26:10.648Z,99.90
2023-05-21T13:31:14.122Z,99.90
2023-05-21T13:36:15.997Z,99.90
2023-05-21T13:41:17.733Z,99.90
2023-05-21T13:46:19.493Z,99.90
2023-05-21T13:51:37.541Z,99.50
2023-05-21T13:56:40.152Z,99.70
2023-05-21T14:01:41.926Z,99.10
2023-05-21T14:06:43.790Z,99.10
2023-05-21T14:11:45.822Z,98.70
2023-05-21T14:16:48.194Z,97.70
2023-05-21T14:21:52.759Z,96.40
2023-05-21T14:26:54.541Z,95.80
2023-05-21T14:31:56.415Z,95.30
2023-05-21T14:36:58.332Z,95.40
2023-05-21T14:42:00.056Z,95.50
2023-05-21T14:47:01.794Z,95.80
2023-05-21T14:52:03.594Z,95.40
2023-05-21T14:57:05.606Z,95.60
2023-05-21T15:02:07.438Z,95.50
2023-05-21T15:07:09.140Z,95.40
2023-05-21T15:12:10.853Z,95.50
2023-05-21T15:17:12.543Z,95.30
2023-05-21T15:22:14.269Z,94.50
2023-05-21T15:27:15.998Z,94.60
2023-05-21T15:32:18.615Z,95.30
2023-05-21T15:37:20.478Z,95.70
2023-05-21T15:42:22.508Z,95.80
2023-05-21T15:47:24.281Z,95.80
2023-05-21T15:52:26.282Z,96.00
2023-05-21T15:57:28.056Z,96.10
2023-05-21T16:02:29.866Z,96.30
2023-05-21T16:07:31.679Z,96.50
2023-05-21T16:12:33.499Z,96.40
2023-05-21T16:17:35.381Z,96.20
2023-05-21T16:22:37.127Z,96.40
2023-05-21T16:27:38.895Z,96.70
2023-05-21T16:32:40.666Z,97.10
2023-05-21T16:37:42.480Z,97.90
2023-05-21T16:42:44.273Z,98.50
2023-05-21T16:47:47.282Z,99.00
2023-05-21T16:52:49.004Z,99.50
2023-05-21T16:57:50.795Z,99.90
2023-05-21T17:02:53.089Z,99.90
2023-05-21T17:07:55.432Z,99.90
2023-05-21T17:12:59.766Z,99.80
2023-05-21T17:18:03.619Z,99.60
2023-05-21T17:23:05.558Z,99.70
2023-05-21T17:28:07.377Z,99.70
2023-05-21T17:33:10.713Z,99.70
2023-05-21T17:38:14.034Z,99.90
2023-05-21T17:43:16.014Z,99.90
2023-05-21T17:48:17.943Z,99.90
2023-05-21T17:53:19.960Z,99.90
2023-05-21T17:58:21.687Z,99.90
2023-05-21T18:03:23.516Z,99.90
2023-05-21T18:08:25.282Z,99.90
2023-05-21T18:13:27.705Z,99.90
2023-05-21T18:18:29.450Z,99.90
2023-05-21T18:23:31.307Z,99.90
2023-05-21T18:28:33.648Z,99.90
2023-05-21T18:33:35.600Z,99.90
2023-05-21T18:38:37.738Z,99.90
2023-05-21T18:43:41.410Z,99.90
2023-05-21T18:48:43.282Z,99.90
2023-05-21T18:53:45.000Z,99.90
2023-05-21T18:58:47.552Z,99.90
2023-05-21T19:03:49.435Z,99.90
2023-05-21T19:08:54.423Z,99.90
2023-05-21T19:13:56.378Z,99.90
2023-05-21T19:18:58.196Z,99.90
2023-05-21T19:24:00.197Z,99.90
2023-05-21T19:29:01.941Z,99.90
2023-05-21T19:34:10.184Z,99.90
2023-05-21T19:39:11.979Z,99.90
2023-05-21T19:44:13.756Z,99.90
2023-05-21T19:49:15.924Z,99.90
2023-05-21T19:54:18.619Z,99.90
2023-05-21T19:59:20.807Z,99.90
2023-05-21T20:04:22.744Z,99.90
2023-05-21T20:09:24.830Z,99.90
2023-05-21T20:14:28.673Z,99.90
2023-05-21T20:19:31.179Z,99.90
2023-05-21T20:24:33.237Z,99.90
2023-05-21T20:29:35.239Z,99.90
2023-05-21T20:34:40.573Z,99.90
2023-05-21T20:39:49.556Z,99.90
2023-05-21T20:44:53.140Z,99.90
2023-05-21T20:49:59.047Z,99.90
2023-05-21T20:55:04.371Z,99.90
2023-05-21T21:00:06.992Z,99.90
2023-05-21T21:05:10.294Z,99.90
2023-05-21T21:10:12.422Z,99.90
2023-05-21T21:15:14.474Z,99.90
2023-05-21T21:20:17.709Z,99.90
2023-05-21T21:25:19.500Z,99.90
2023-05-21T21:30:21.267Z,99.90
2023-05-21T21:35:22.995Z,99.90
2023-05-21T21:40:24.763Z,99.90
2023-05-21T21:45:26.681Z,99.90
2023-05-21T21:50:28.425Z,99.90
2023-05-21T21:55:30.331Z,99.90
2023-05-21T22:00:32.077Z,99.90
2023-05-21T22:05:34.011Z,99.90
2023-05-21T22:10:38.126Z,99.90
2023-05-21T22:15:40.326Z,99.90
2023-05-21T22:20:43.579Z,99.90
2023-05-21T22:25:46.159Z,99.90
2023-05-21T22:30:48.013Z,99.90
2023-05-21T22:35:49.794Z,99.90
2023-05-21T22:40:51.802Z,99.90
2023-05-21T22:45:53.588Z,99.90
2023-05-21T22:50:58.086Z,99.90
2023-05-21T22:56:00.952Z,99.90
2023-05-21T23:01:03.967Z,99.90
2023-05-21T23:06:05.877Z,99.90
2023-05-21T23:11:07.684Z,99.90
2023-05-21T23:16:09.578Z,99.90
2023-05-21T23:21:11.389Z,99.90
2023-05-21T23:26:13.157Z,99.90
2023-05-21T23:31:14.889Z,99.90
2023-05-21T23:36:16.599Z,99.90
2023-05-21T23:41:18.410Z,99.90
2023-05-21T23:46:20.359Z,99.90
2023-05-21T23:51:22.180Z,99.90
2023-05-21T23:56:23.920Z,99.90
